sensor_id;sensor_type;location;lat;lon;timestamp;pressure;altitude;pressure_sealevel;temperature
76476;BMP280;65308;50.078;14.854;2022-12-04T00:00:14;99294.81;;;4.03
76476;BMP280;65308;50.078;14.854;2022-12-04T00:02:54;99295.34;;;3.66
76476;BMP280;65308;50.078;14.854;2022-12-04T00:05:34;99288.53;;;3.65
76476;BMP280;65308;50.078;14.854;2022-12-04T00:08:07;99295.69;;;3.72
76476;BMP280;65308;50.078;14.854;2022-12-04T00:10:49;99295.59;;;3.97
76476;BMP280;65308;50.078;14.854;2022-12-04T00:13:26;99291.47;;;3.85
76476;BMP280;65308;50.078;14.854;2022-12-04T00:15:53;99293.34;;;3.88
76476;BMP280;65308;50.078;14.854;2022-12-04T00:18:21;99295.22;;;3.98
76476;BMP280;65308;50.078;14.854;2022-12-04T00:20:49;99291.41;;;3.99
76476;BMP280;65308;50.078;14.854;2022-12-04T00:23:16;99292.88;;;4.04
76476;BMP280;65308;50.078;14.854;2022-12-04T00:25:44;99292.19;;;3.93
76476;BMP280;65308;50.078;14.854;2022-12-04T00:28:14;99282.34;;;4.00
76476;BMP280;65308;50.078;14.854;2022-12-04T00:30:40;99281.97;;;3.98
76476;BMP280;65308;50.078;14.854;2022-12-04T00:33:08;99280.84;;;3.92
76476;BMP280;65308;50.078;14.854;2022-12-04T00:35:36;99283.47;;;3.99
76476;BMP280;65308;50.078;14.854;2022-12-04T00:38:03;99283.47;;;4.03
76476;BMP280;65308;50.078;14.854;2022-12-04T00:40:29;99284.63;;;3.98
76476;BMP280;65308;50.078;14.854;2022-12-04T00:42:56;99281.13;;;4.08
76476;BMP280;65308;50.078;14.854;2022-12-04T00:45:23;99286.13;;;3.96
76476;BMP280;65308;50.078;14.854;2022-12-04T00:47:49;99283.88;;;3.94
76476;BMP280;65308;50.078;14.854;2022-12-04T00:50:16;99283.47;;;4.03
76476;BMP280;65308;50.078;14.854;2022-12-04T00:52:44;99284.16;;;4.10
76476;BMP280;65308;50.078;14.854;2022-12-04T00:55:11;99285.31;;;4.06
76476;BMP280;65308;50.078;14.854;2022-12-04T00:57:38;99286.44;;;4.12
76476;BMP280;65308;50.078;14.854;2022-12-04T01:00:08;99279.22;;;4.20
76476;BMP280;65308;50.078;14.854;2022-12-04T01:02:35;99280.69;;;4.21
76476;BMP280;65308;50.078;14.854;2022-12-04T01:05:03;99264.13;;;4.06
76476;BMP280;65308;50.078;14.854;2022-12-04T01:07:32;99266.09;;;3.91
76476;BMP280;65308;50.078;14.854;2022-12-04T01:10:07;99263.44;;;3.95
76476;BMP280;65308;50.078;14.854;2022-12-04T01:12:48;99277.75;;;4.08
76476;BMP280;65308;50.078;14.854;2022-12-04T01:15:34;99273.91;;;4.16
76476;BMP280;65308;50.078;14.854;2022-12-04T01:18:05;99266.38;;;4.15
76476;BMP280;65308;50.078;14.854;2022-12-04T01:20:47;99256.16;;;4.13
76476;BMP280;65308;50.078;14.854;2022-12-04T01:23:14;99261.00;;;4.22
76476;BMP280;65308;50.078;14.854;2022-12-04T01:25:54;99255.63;;;4.36
76476;BMP280;65308;50.078;14.854;2022-12-04T01:28:22;99251.75;;;4.48
76476;BMP280;65308;50.078;14.854;2022-12-04T01:30:58;99267.84;;;4.71
76476;BMP280;65308;50.078;14.854;2022-12-04T01:33:32;99249.66;;;4.73
76476;BMP280;65308;50.078;14.854;2022-12-04T01:36:03;99238.13;;;4.46
76476;BMP280;65308;50.078;14.854;2022-12-04T01:38:30;99248.25;;;4.58
76476;BMP280;65308;50.078;14.854;2022-12-04T01:41:02;99240.03;;;4.45
76476;BMP280;65308;50.078;14.854;2022-12-04T01:43:30;99254.81;;;4.39
76476;BMP280;65308;50.078;14.854;2022-12-04T01:45:58;99249.97;;;4.30
76476;BMP280;65308;50.078;14.854;2022-12-04T01:48:28;99252.16;;;4.39
76476;BMP280;65308;50.078;14.854;2022-12-04T01:51:05;99246.09;;;4.46
76476;BMP280;65308;50.078;14.854;2022-12-04T01:53:37;99231.34;;;4.38
76476;BMP280;65308;50.078;14.854;2022-12-04T01:56:07;99229.06;;;4.40
76476;BMP280;65308;50.078;14.854;2022-12-04T01:58:45;99217.72;;;4.43
76476;BMP280;65308;50.078;14.854;2022-12-04T02:01:12;99232.47;;;4.44
76476;BMP280;65308;50.078;14.854;2022-12-04T02:03:39;99222.03;;;4.19
76476;BMP280;65308;50.078;14.854;2022-12-04T02:06:06;99223.47;;;4.30
76476;BMP280;65308;50.078;14.854;2022-12-04T02:08:34;99214.81;;;4.26
76476;BMP280;65308;50.078;14.854;2022-12-04T02:11:04;99230.91;;;3.98
76476;BMP280;65308;50.078;14.854;2022-12-04T02:13:41;99225.59;;;3.98
76476;BMP280;65308;50.078;14.854;2022-12-04T02:16:16;99232.16;;;4.34
76476;BMP280;65308;50.078;14.854;2022-12-04T02:18:50;99239.13;;;4.14
76476;BMP280;65308;50.078;14.854;2022-12-04T02:21:25;99236.88;;;4.05
76476;BMP280;65308;50.078;14.854;2022-12-04T02:26:47;99233.84;;;4.10
76476;BMP280;65308;50.078;14.854;2022-12-04T02:29:23;99228.53;;;4.14
76476;BMP280;65308;50.078;14.854;2022-12-04T02:31:57;99224.00;;;4.04
76476;BMP280;65308;50.078;14.854;2022-12-04T02:34:27;99221.69;;;4.17
76476;BMP280;65308;50.078;14.854;2022-12-04T02:36:58;99213.28;;;4.25
76476;BMP280;65308;50.078;14.854;2022-12-04T02:39:31;99215.63;;;4.16
76476;BMP280;65308;50.078;14.854;2022-12-04T02:42:03;99215.56;;;4.23
76476;BMP280;65308;50.078;14.854;2022-12-04T02:44:36;99214.59;;;4.51
76476;BMP280;65308;50.078;14.854;2022-12-04T02:47:10;99212.31;;;4.53
76476;BMP280;65308;50.078;14.854;2022-12-04T02:49:41;99216.13;;;4.49
76476;BMP280;65308;50.078;14.854;2022-12-04T02:52:11;99221.34;;;4.60
76476;BMP280;65308;50.078;14.854;2022-12-04T02:54:41;99217.66;;;4.50
76476;BMP280;65308;50.078;14.854;2022-12-04T02:57:12;99214.59;;;4.51
76476;BMP280;65308;50.078;14.854;2022-12-04T02:59:43;99217.59;;;4.57
76476;BMP280;65308;50.078;14.854;2022-12-04T03:02:13;99212.97;;;4.65
76476;BMP280;65308;50.078;14.854;2022-12-04T03:04:45;99208.84;;;4.60
76476;BMP280;65308;50.078;14.854;2022-12-04T03:07:25;99218.41;;;4.50
76476;BMP280;65308;50.078;14.854;2022-12-04T03:09:55;99215.69;;;4.57
76476;BMP280;65308;50.078;14.854;2022-12-04T03:12:26;99208.47;;;4.62
76476;BMP280;65308;50.078;14.854;2022-12-04T03:14:59;99214.53;;;4.58
76476;BMP280;65308;50.078;14.854;2022-12-04T03:17:40;99209.28;;;4.55
76476;BMP280;65308;50.078;14.854;2022-12-04T03:20:18;99210.72;;;4.63
76476;BMP280;65308;50.078;14.854;2022-12-04T03:22:51;99208.84;;;4.60
76476;BMP280;65308;50.078;14.854;2022-12-04T03:25:27;99230.44;;;4.58
76476;BMP280;65308;50.078;14.854;2022-12-04T03:28:13;99219.81;;;4.62
76476;BMP280;65308;50.078;14.854;2022-12-04T03:30:48;99220.75;;;4.83
76476;BMP280;65308;50.078;14.854;2022-12-04T03:33:22;99228.16;;;4.98
76476;BMP280;65308;50.078;14.854;2022-12-04T03:35:54;99226.41;;;4.85
76476;BMP280;65308;50.078;14.854;2022-12-04T03:38:36;99223.16;;;5.11
76476;BMP280;65308;50.078;14.854;2022-12-04T03:41:12;99214.78;;;5.43
76476;BMP280;65308;50.078;14.854;2022-12-04T03:43:49;99213.75;;;5.37
76476;BMP280;65308;50.078;14.854;2022-12-04T03:46:28;99216.13;;;5.59
76476;BMP280;65308;50.078;14.854;2022-12-04T03:49:01;99221.53;;;5.52
76476;BMP280;65308;50.078;14.854;2022-12-04T03:51:33;99219.53;;;5.56
76476;BMP280;65308;50.078;14.854;2022-12-04T03:54:04;99214.94;;;5.63
76476;BMP280;65308;50.078;14.854;2022-12-04T03:56:36;99213.50;;;5.55
76476;BMP280;65308;50.078;14.854;2022-12-04T03:59:08;99214.03;;;5.43
76476;BMP280;65308;50.078;14.854;2022-12-04T04:01:42;99210.44;;;5.57
76476;BMP280;65308;50.078;14.854;2022-12-04T04:04:14;99212.59;;;5.65
76476;BMP280;65308;50.078;14.854;2022-12-04T04:06:47;99212.97;;;5.94
76476;BMP280;65308;50.078;14.854;2022-12-04T04:09:20;99216.00;;;5.66
76476;BMP280;65308;50.078;14.854;2022-12-04T04:11:52;99199.03;;;5.60
76476;BMP280;65308;50.078;14.854;2022-12-04T04:14:23;99204.38;;;5.56
76476;BMP280;65308;50.078;14.854;2022-12-04T04:17:12;99199.69;;;5.37
76476;BMP280;65308;50.078;14.854;2022-12-04T04:20:02;99197.00;;;5.40
76476;BMP280;65308;50.078;14.854;2022-12-04T04:22:48;99201.38;;;5.54
76476;BMP280;65308;50.078;14.854;2022-12-04T04:25:36;99201.88;;;5.42
76476;BMP280;65308;50.078;14.854;2022-12-04T04:28:26;99207.13;;;5.49
76476;BMP280;65308;50.078;14.854;2022-12-04T04:30:57;99205.63;;;5.48
76476;BMP280;65308;50.078;14.854;2022-12-04T04:33:29;99208.09;;;5.62
76476;BMP280;65308;50.078;14.854;2022-12-04T04:36:06;99210.94;;;5.48
76476;BMP280;65308;50.078;14.854;2022-12-04T04:38:39;99204.47;;;5.49
76476;BMP280;65308;50.078;14.854;2022-12-04T04:41:13;99217.22;;;5.61
76476;BMP280;65308;50.078;14.854;2022-12-04T04:43:46;99208.47;;;5.30
76476;BMP280;65308;50.078;14.854;2022-12-04T04:46:22;99208.47;;;5.34
76476;BMP280;65308;50.078;14.854;2022-12-04T04:48:55;99202.03;;;5.62
76476;BMP280;65308;50.078;14.854;2022-12-04T04:51:25;99187.75;;;5.52
76476;BMP280;65308;50.078;14.854;2022-12-04T04:53:58;99180.34;;;5.40
76476;BMP280;65308;50.078;14.854;2022-12-04T04:56:29;99183.50;;;5.28
76476;BMP280;65308;50.078;14.854;2022-12-04T04:58:59;99178.88;;;5.35
76476;BMP280;65308;50.078;14.854;2022-12-04T05:01:26;99179.66;;;5.32
76476;BMP280;65308;50.078;14.854;2022-12-04T05:03:55;99185.66;;;5.40
76476;BMP280;65308;50.078;14.854;2022-12-04T05:06:22;99179.47;;;5.46
76476;BMP280;65308;50.078;14.854;2022-12-04T05:08:48;99188.19;;;5.47
76476;BMP280;65308;50.078;14.854;2022-12-04T05:11:18;99187.78;;;5.48
76476;BMP280;65308;50.078;14.854;2022-12-04T05:13:47;99191.25;;;5.45
76476;BMP280;65308;50.078;14.854;2022-12-04T05:16:14;99190.88;;;5.43
76476;BMP280;65308;50.078;14.854;2022-12-04T05:18:41;99201.53;;;5.70
76476;BMP280;65308;50.078;14.854;2022-12-04T05:21:30;99198.09;;;5.74
76476;BMP280;65308;50.078;14.854;2022-12-04T05:23:56;99198.81;;;5.78
76476;BMP280;65308;50.078;14.854;2022-12-04T05:26:22;99198.88;;;5.70
76476;BMP280;65308;50.078;14.854;2022-12-04T05:28:49;99185.88;;;5.49
76476;BMP280;65308;50.078;14.854;2022-12-04T05:31:16;99188.19;;;5.47
76476;BMP280;65308;50.078;14.854;2022-12-04T05:33:43;99195.38;;;5.50
76476;BMP280;65308;50.078;14.854;2022-12-04T05:36:11;99186.94;;;5.55
76476;BMP280;65308;50.078;14.854;2022-12-04T05:38:43;99193.94;;;5.42
76476;BMP280;65308;50.078;14.854;2022-12-04T05:41:19;99198.81;;;5.47
76476;BMP280;65308;50.078;14.854;2022-12-04T05:43:59;99195.91;;;5.38
76476;BMP280;65308;50.078;14.854;2022-12-04T05:46:30;99195.00;;;5.48
76476;BMP280;65308;50.078;14.854;2022-12-04T05:49:05;99199.16;;;5.49
76476;BMP280;65308;50.078;14.854;2022-12-04T05:51:43;99193.06;;;5.52
76476;BMP280;65308;50.078;14.854;2022-12-04T05:54:25;99191.72;;;5.37
76476;BMP280;65308;50.078;14.854;2022-12-04T05:57:00;99204.53;;;5.42
76476;BMP280;65308;50.078;14.854;2022-12-04T05:59:33;99201.13;;;5.41
76476;BMP280;65308;50.078;14.854;2022-12-04T06:02:10;99197.13;;;5.60
76476;BMP280;65308;50.078;14.854;2022-12-04T06:04:45;99200.06;;;5.66
76476;BMP280;65308;50.078;14.854;2022-12-04T06:07:15;99203.63;;;5.56
76476;BMP280;65308;50.078;14.854;2022-12-04T06:09:58;99210.56;;;5.46
76476;BMP280;65308;50.078;14.854;2022-12-04T06:12:37;99200.38;;;5.44
76476;BMP280;65308;50.078;14.854;2022-12-04T06:15:04;99190.09;;;5.46
76476;BMP280;65308;50.078;14.854;2022-12-04T06:17:31;99204.03;;;5.54
76476;BMP280;65308;50.078;14.854;2022-12-04T06:19:58;99202.22;;;5.47
76476;BMP280;65308;50.078;14.854;2022-12-04T06:22:25;99195.72;;;5.52
76476;BMP280;65308;50.078;14.854;2022-12-04T06:24:52;99206.59;;;5.61
76476;BMP280;65308;50.078;14.854;2022-12-04T06:27:20;99190.06;;;5.50
76476;BMP280;65308;50.078;14.854;2022-12-04T06:29:47;99214.56;;;5.61
76476;BMP280;65308;50.078;14.854;2022-12-04T06:32:17;99207.47;;;5.51
76476;BMP280;65308;50.078;14.854;2022-12-04T06:34:44;99214.75;;;5.47
76476;BMP280;65308;50.078;14.854;2022-12-04T06:37:11;99222.00;;;5.43
76476;BMP280;65308;50.078;14.854;2022-12-04T06:39:41;99218.09;;;5.51
76476;BMP280;65308;50.078;14.854;2022-12-04T06:42:08;99213.47;;;5.59
76476;BMP280;65308;50.078;14.854;2022-12-04T06:44:36;99219.47;;;5.63
76476;BMP280;65308;50.078;14.854;2022-12-04T06:47:02;99225.84;;;5.69
76476;BMP280;65308;50.078;14.854;2022-12-04T06:49:29;99217.59;;;5.63
76476;BMP280;65308;50.078;14.854;2022-12-04T06:51:56;99223.38;;;5.82
76476;BMP280;65308;50.078;14.854;2022-12-04T06:54:23;99229.09;;;5.80
76476;BMP280;65308;50.078;14.854;2022-12-04T06:56:50;99226.75;;;5.86
76476;BMP280;65308;50.078;14.854;2022-12-04T06:59:17;99227.00;;;5.95
76476;BMP280;65308;50.078;14.854;2022-12-04T07:01:47;99225.06;;;5.96
76476;BMP280;65308;50.078;14.854;2022-12-04T07:04:16;99218.34;;;5.91
76476;BMP280;65308;50.078;14.854;2022-12-04T07:06:47;99218.78;;;5.86
76476;BMP280;65308;50.078;14.854;2022-12-04T07:09:18;99227.09;;;5.88
76476;BMP280;65308;50.078;14.854;2022-12-04T07:11:45;99222.38;;;5.72
76476;BMP280;65308;50.078;14.854;2022-12-04T07:14:15;99207.84;;;5.80
76476;BMP280;65308;50.078;14.854;2022-12-04T07:16:42;99225.13;;;5.92
76476;BMP280;65308;50.078;14.854;2022-12-04T07:19:11;99223.06;;;6.03
76476;BMP280;65308;50.078;14.854;2022-12-04T07:21:38;99227.00;;;5.95
76476;BMP280;65308;50.078;14.854;2022-12-04T07:24:05;99227.78;;;5.92
76476;BMP280;65308;50.078;14.854;2022-12-04T07:26:32;99226.16;;;6.02
76476;BMP280;65308;50.078;14.854;2022-12-04T07:28:59;99222.41;;;5.96
76476;BMP280;65308;50.078;14.854;2022-12-04T07:31:27;99229.66;;;5.95
76476;BMP280;65308;50.078;14.854;2022-12-04T07:33:53;99231.34;;;5.82
76476;BMP280;65308;50.078;14.854;2022-12-04T07:36:30;99236.44;;;5.96
76476;BMP280;65308;50.078;14.854;2022-12-04T07:38:57;99227.03;;;6.19
76476;BMP280;65308;50.078;14.854;2022-12-04T07:41:24;99231.50;;;6.25
76476;BMP280;65308;50.078;14.854;2022-12-04T07:43:50;99246.25;;;6.03
76476;BMP280;65308;50.078;14.854;2022-12-04T07:46:19;99242.69;;;5.86
76476;BMP280;65308;50.078;14.854;2022-12-04T07:48:49;99234.78;;;6.06
76476;BMP280;65308;50.078;14.854;2022-12-04T07:51:17;99234.53;;;5.73
76476;BMP280;65308;50.078;14.854;2022-12-04T07:53:47;99243.97;;;6.01
76476;BMP280;65308;50.078;14.854;2022-12-04T07:56:15;99244.22;;;5.83
76476;BMP280;65308;50.078;14.854;2022-12-04T07:58:45;99245.53;;;5.99
76476;BMP280;65308;50.078;14.854;2022-12-04T08:01:16;99237.97;;;5.97
76476;BMP280;65308;50.078;14.854;2022-12-04T08:03:46;99235.75;;;5.92
76476;BMP280;65308;50.078;14.854;2022-12-04T08:06:14;99241.94;;;5.85
76476;BMP280;65308;50.078;14.854;2022-12-04T08:08:50;99239.22;;;5.89
76476;BMP280;65308;50.078;14.854;2022-12-04T08:11:20;99240.03;;;5.86
76476;BMP280;65308;50.078;14.854;2022-12-04T08:13:48;99244.06;;;5.94
76476;BMP280;65308;50.078;14.854;2022-12-04T08:16:18;99236.22;;;6.14
76476;BMP280;65308;50.078;14.854;2022-12-04T08:18:45;99249.41;;;6.17
76476;BMP280;65308;50.078;14.854;2022-12-04T08:21:14;99240.47;;;6.08
76476;BMP280;65308;50.078;14.854;2022-12-04T08:23:43;99243.09;;;6.11
76476;BMP280;65308;50.078;14.854;2022-12-04T08:26:12;99262.19;;;6.03
76476;BMP280;65308;50.078;14.854;2022-12-04T08:28:39;99251.97;;;6.25
76476;BMP280;65308;50.078;14.854;2022-12-04T08:31:09;99255.06;;;5.96
76476;BMP280;65308;50.078;14.854;2022-12-04T08:33:36;99253.19;;;6.20
76476;BMP280;65308;50.078;14.854;2022-12-04T08:36:05;99267.25;;;6.21
76476;BMP280;65308;50.078;14.854;2022-12-04T08:38:33;99241.31;;;6.01
76476;BMP280;65308;50.078;14.854;2022-12-04T08:41:01;99245.25;;;6.16
76476;BMP280;65308;50.078;14.854;2022-12-04T08:43:30;99246.00;;;6.17
76476;BMP280;65308;50.078;14.854;2022-12-04T08:45:57;99239.72;;;6.07
76476;BMP280;65308;50.078;14.854;2022-12-04T08:48:25;99244.66;;;6.05
76476;BMP280;65308;50.078;14.854;2022-12-04T08:50:52;99239.91;;;5.93
76476;BMP280;65308;50.078;14.854;2022-12-04T08:53:20;99239.34;;;6.05
76476;BMP280;65308;50.078;14.854;2022-12-04T08:55:47;99257.50;;;6.10
76476;BMP280;65308;50.078;14.854;2022-12-04T08:58:14;99242.66;;;6.13
76476;BMP280;65308;50.078;14.854;2022-12-04T09:00:42;99240.88;;;6.06
76476;BMP280;65308;50.078;14.854;2022-12-04T09:03:12;99245.75;;;6.11
76476;BMP280;65308;50.078;14.854;2022-12-04T09:05:41;99247.03;;;6.27
76476;BMP280;65308;50.078;14.854;2022-12-04T09:08:10;99233.78;;;6.23
76476;BMP280;65308;50.078;14.854;2022-12-04T09:10:38;99238.00;;;6.44
76476;BMP280;65308;50.078;14.854;2022-12-04T09:13:05;99246.50;;;6.35
76476;BMP280;65308;50.078;14.854;2022-12-04T09:15:32;99247.53;;;6.42
76476;BMP280;65308;50.078;14.854;2022-12-04T09:18:01;99234.06;;;6.52
76476;BMP280;65308;50.078;14.854;2022-12-04T09:20:27;99222.91;;;6.61
76476;BMP280;65308;50.078;14.854;2022-12-04T09:22:54;99222.38;;;6.70
76476;BMP280;65308;50.078;14.854;2022-12-04T09:25:21;99219.69;;;6.50
76476;BMP280;65308;50.078;14.854;2022-12-04T09:27:52;99221.19;;;6.51
76476;BMP280;65308;50.078;14.854;2022-12-04T09:30:20;99221.63;;;6.69
76476;BMP280;65308;50.078;14.854;2022-12-04T09:32:54;99223.41;;;6.76
76476;BMP280;65308;50.078;14.854;2022-12-04T09:35:22;99217.25;;;6.59
76476;BMP280;65308;50.078;14.854;2022-12-04T09:37:49;99226.06;;;6.32
76476;BMP280;65308;50.078;14.854;2022-12-04T09:40:24;99216.31;;;6.22
76476;BMP280;65308;50.078;14.854;2022-12-04T09:42:57;99225.84;;;6.43
76476;BMP280;65308;50.078;14.854;2022-12-04T09:45:27;99209.91;;;6.87
76476;BMP280;65308;50.078;14.854;2022-12-04T09:48:00;99214.25;;;6.77
76476;BMP280;65308;50.078;14.854;2022-12-04T09:50:38;99208.88;;;6.80
76476;BMP280;65308;50.078;14.854;2022-12-04T09:53:10;99211.38;;;7.07
76476;BMP280;65308;50.078;14.854;2022-12-04T09:55:41;99219.13;;;7.02
76476;BMP280;65308;50.078;14.854;2022-12-04T09:58:24;99206.63;;;6.99
76476;BMP280;65308;50.078;14.854;2022-12-04T10:00:59;99216.94;;;6.97
76476;BMP280;65308;50.078;14.854;2022-12-04T10:03:34;99205.66;;;6.69
76476;BMP280;65308;50.078;14.854;2022-12-04T10:06:10;99200.94;;;6.77
76476;BMP280;65308;50.078;14.854;2022-12-04T10:08:40;99206.94;;;6.84
76476;BMP280;65308;50.078;14.854;2022-12-04T10:11:11;99202.72;;;6.63
76476;BMP280;65308;50.078;14.854;2022-12-04T10:14:01;99208.31;;;6.69
76476;BMP280;65308;50.078;14.854;2022-12-04T10:16:37;99200.53;;;6.78
76476;BMP280;65308;50.078;14.854;2022-12-04T10:19:13;99211.53;;;6.80
76476;BMP280;65308;50.078;14.854;2022-12-04T10:21:52;99206.47;;;6.66
76476;BMP280;65308;50.078;14.854;2022-12-04T10:24:27;99206.25;;;6.77
76476;BMP280;65308;50.078;14.854;2022-12-04T10:27:03;99205.63;;;6.73
76476;BMP280;65308;50.078;14.854;2022-12-04T10:29:33;99209.63;;;6.81
76476;BMP280;65308;50.078;14.854;2022-12-04T10:32:06;99196.53;;;6.90
76476;BMP280;65308;50.078;14.854;2022-12-04T10:34:43;99198.19;;;7.04
76476;BMP280;65308;50.078;14.854;2022-12-04T10:37:13;99195.28;;;7.15
76476;BMP280;65308;50.078;14.854;2022-12-04T10:39:44;99209.03;;;7.13
76476;BMP280;65308;50.078;14.854;2022-12-04T10:42:21;99199.75;;;7.01
76476;BMP280;65308;50.078;14.854;2022-12-04T10:44:50;99199.00;;;7.01
76476;BMP280;65308;50.078;14.854;2022-12-04T10:47:17;99199.19;;;6.90
76476;BMP280;65308;50.078;14.854;2022-12-04T10:49:44;99189.81;;;7.22
76476;BMP280;65308;50.078;14.854;2022-12-04T10:52:12;99190.44;;;7.29
76476;BMP280;65308;50.078;14.854;2022-12-04T10:54:45;99186.28;;;7.28
76476;BMP280;65308;50.078;14.854;2022-12-04T10:57:14;99183.88;;;7.34
76476;BMP280;65308;50.078;14.854;2022-12-04T10:59:48;99181.38;;;7.07
76476;BMP280;65308;50.078;14.854;2022-12-04T11:02:20;99189.72;;;6.89
76476;BMP280;65308;50.078;14.854;2022-12-04T11:04:55;99189.50;;;6.80
76476;BMP280;65308;50.078;14.854;2022-12-04T11:07:25;99190.50;;;7.26
76476;BMP280;65308;50.078;14.854;2022-12-04T11:09:54;99180.13;;;7.31
76476;BMP280;65308;50.078;14.854;2022-12-04T11:12:22;99183.75;;;7.21
76476;BMP280;65308;50.078;14.854;2022-12-04T11:15:00;99182.88;;;7.28
76476;BMP280;65308;50.078;14.854;2022-12-04T11:17:27;99185.25;;;7.02
76476;BMP280;65308;50.078;14.854;2022-12-04T11:20:03;99176.78;;;7.07
76476;BMP280;65308;50.078;14.854;2022-12-04T11:22:48;99164.47;;;7.50
76476;BMP280;65308;50.078;14.854;2022-12-04T11:25:18;99168.06;;;7.27
76476;BMP280;65308;50.078;14.854;2022-12-04T11:27:48;99159.03;;;7.21
76476;BMP280;65308;50.078;14.854;2022-12-04T11:30:20;99176.38;;;7.09
76476;BMP280;65308;50.078;14.854;2022-12-04T11:32:48;99151.78;;;7.21
76476;BMP280;65308;50.078;14.854;2022-12-04T11:35:19;99159.81;;;7.01
76476;BMP280;65308;50.078;14.854;2022-12-04T11:37:55;99159.88;;;6.98
76476;BMP280;65308;50.078;14.854;2022-12-04T11:40:24;99162.69;;;6.91
76476;BMP280;65308;50.078;14.854;2022-12-04T11:43:01;99164.81;;;6.79
76476;BMP280;65308;50.078;14.854;2022-12-04T11:45:29;99160.59;;;6.82
76476;BMP280;65308;50.078;14.854;2022-12-04T11:47:57;99174.16;;;6.88
76476;BMP280;65308;50.078;14.854;2022-12-04T11:50:39;99170.22;;;7.12
76476;BMP280;65308;50.078;14.854;2022-12-04T11:53:14;99155.72;;;7.17
76476;BMP280;65308;50.078;14.854;2022-12-04T11:55:51;99160.47;;;7.25
76476;BMP280;65308;50.078;14.854;2022-12-04T11:58:37;99151.94;;;7.14
76476;BMP280;65308;50.078;14.854;2022-12-04T12:03:42;99139.91;;;7.26
76476;BMP280;65308;50.078;14.854;2022-12-04T12:06:28;99141.72;;;7.13
76476;BMP280;65308;50.078;14.854;2022-12-04T12:09:11;99154.22;;;7.16
76476;BMP280;65308;50.078;14.854;2022-12-04T12:11:43;99149.41;;;7.43
76476;BMP280;65308;50.078;14.854;2022-12-04T12:14:18;99131.66;;;7.04
76476;BMP280;65308;50.078;14.854;2022-12-04T12:16:57;99140.91;;;7.16
76476;BMP280;65308;50.078;14.854;2022-12-04T12:19:43;99137.09;;;7.33
76476;BMP280;65308;50.078;14.854;2022-12-04T12:22:22;99145.03;;;7.53
76476;BMP280;65308;50.078;14.854;2022-12-04T12:25:01;99146.59;;;7.67
76476;BMP280;65308;50.078;14.854;2022-12-04T12:27:40;99155.19;;;7.74
76476;BMP280;65308;50.078;14.854;2022-12-04T12:30:13;99145.53;;;7.48
76476;BMP280;65308;50.078;14.854;2022-12-04T12:33:02;99138.66;;;7.30
76476;BMP280;65308;50.078;14.854;2022-12-04T12:35:36;99132.06;;;7.39
76476;BMP280;65308;50.078;14.854;2022-12-04T12:38:09;99126.59;;;7.26
76476;BMP280;65308;50.078;14.854;2022-12-04T12:40:39;99138.94;;;7.36
76476;BMP280;65308;50.078;14.854;2022-12-04T12:43:11;99136.28;;;7.52
76476;BMP280;65308;50.078;14.854;2022-12-04T12:45:44;99133.84;;;7.25
76476;BMP280;65308;50.078;14.854;2022-12-04T12:48:22;99138.34;;;7.28
76476;BMP280;65308;50.078;14.854;2022-12-04T12:50:53;99133.91;;;7.22
76476;BMP280;65308;50.078;14.854;2022-12-04T12:53:24;99131.53;;;7.27
76476;BMP280;65308;50.078;14.854;2022-12-04T12:55:57;99137.25;;;7.26
76476;BMP280;65308;50.078;14.854;2022-12-04T12:58:28;99115.97;;;7.26
76476;BMP280;65308;50.078;14.854;2022-12-04T13:01:03;99120.81;;;6.95
76476;BMP280;65308;50.078;14.854;2022-12-04T13:03:40;99123.25;;;7.22
76476;BMP280;65308;50.078;14.854;2022-12-04T13:06:13;99116.31;;;6.92
76476;BMP280;65308;50.078;14.854;2022-12-04T13:08:43;99111.56;;;7.36
76476;BMP280;65308;50.078;14.854;2022-12-04T13:11:16;99113.41;;;7.39
76476;BMP280;65308;50.078;14.854;2022-12-04T13:13:46;99114.78;;;7.43
76476;BMP280;65308;50.078;14.854;2022-12-04T13:16:16;99112.22;;;7.40
76476;BMP280;65308;50.078;14.854;2022-12-04T13:18:49;99106.09;;;7.59
76476;BMP280;65308;50.078;14.854;2022-12-04T13:21:28;99103.47;;;7.23
76476;BMP280;65308;50.078;14.854;2022-12-04T13:26:54;99105.22;;;7.29
76476;BMP280;65308;50.078;14.854;2022-12-04T13:29:38;99098.41;;;7.45
76476;BMP280;65308;50.078;14.854;2022-12-04T13:32:24;99094.44;;;7.53
76476;BMP280;65308;50.078;14.854;2022-12-04T13:35:01;99106.88;;;7.40
76476;BMP280;65308;50.078;14.854;2022-12-04T13:37:48;99106.22;;;7.36
76476;BMP280;65308;50.078;14.854;2022-12-04T13:40:34;99120.88;;;7.27
76476;BMP280;65308;50.078;14.854;2022-12-04T13:46:24;99120.88;;;7.07
76476;BMP280;65308;50.078;14.854;2022-12-04T13:49:09;99125.50;;;7.07
76476;BMP280;65308;50.078;14.854;2022-12-04T13:51:48;99106.81;;;6.91
76476;BMP280;65308;50.078;14.854;2022-12-04T13:54:23;99126.03;;;6.98
76476;BMP280;65308;50.078;14.854;2022-12-04T13:56:52;99104.84;;;6.75
76476;BMP280;65308;50.078;14.854;2022-12-04T13:59:23;99122.09;;;6.67
76476;BMP280;65308;50.078;14.854;2022-12-04T14:02:00;99103.09;;;6.48
76476;BMP280;65308;50.078;14.854;2022-12-04T14:04:29;99095.69;;;6.76
76476;BMP280;65308;50.078;14.854;2022-12-04T14:06:58;99081.00;;;6.71
76476;BMP280;65308;50.078;14.854;2022-12-04T14:09:27;99090.88;;;6.71
76476;BMP280;65308;50.078;14.854;2022-12-04T14:11:59;99097.69;;;6.72
76476;BMP280;65308;50.078;14.854;2022-12-04T14:14:30;99092.75;;;6.90
76476;BMP280;65308;50.078;14.854;2022-12-04T14:17:03;99093.59;;;6.87
76476;BMP280;65308;50.078;14.854;2022-12-04T14:19:32;99088.81;;;6.78
76476;BMP280;65308;50.078;14.854;2022-12-04T14:22:00;99093.00;;;6.59
76476;BMP280;65308;50.078;14.854;2022-12-04T14:24:31;99104.31;;;6.63
76476;BMP280;65308;50.078;14.854;2022-12-04T14:27:00;99096.69;;;6.66
76476;BMP280;65308;50.078;14.854;2022-12-04T14:29:41;99099.47;;;6.78
76476;BMP280;65308;50.078;14.854;2022-12-04T14:32:14;99109.28;;;6.81
76476;BMP280;65308;50.078;14.854;2022-12-04T14:34:42;99103.22;;;6.81
76476;BMP280;65308;50.078;14.854;2022-12-04T14:37:15;99094.28;;;6.71
76476;BMP280;65308;50.078;14.854;2022-12-04T14:39:45;99101.84;;;6.53
76476;BMP280;65308;50.078;14.854;2022-12-04T14:42:16;99095.56;;;6.83
76476;BMP280;65308;50.078;14.854;2022-12-04T14:44:45;99093.59;;;6.87
76476;BMP280;65308;50.078;14.854;2022-12-04T14:47:20;99082.38;;;6.59